Time;durP1;ratioP1;P1;durP2;ratioP2;P2;SDS_P1;SDS_P2;PMS_P1;PMS_P2;Temp;Humidity;BMP_temperature;BMP_pressure;BME280_temperature;BME280_humidity;BME280_pressure;Samples;Min_cycle;Max_cycle;Signal;HPM_P1;HPM_P2
2022/05/08 18:25:52;;;;;;;;;;;16.30;53.10;;;;;;5150113;27;19916;-91
2022/05/08 18:28:19;;;;;;;;;;;15.90;54.00;;;;;;5120067;27;20576;-89
2022/05/08 18:30:45;;;;;;;;;;;15.90;54.70;;;;;;5132846;28;19915;-89
2022/05/08 18:33:11;;;;;;;;;;;15.90;55.20;;;;;;5128583;27;19915;-89
2022/05/08 18:35:36;;;;;;;;;;;15.90;55.60;;;;;;5105091;28;19912;-92
2022/05/08 18:38:03;;;;;;;;;;;15.90;55.90;;;;;;5123938;27;19912;-89
2022/05/08 18:40:28;;;;;;;;;;;15.90;56.10;;;;;;5128124;27;19954;-87
2022/05/08 18:42:56;;;;;;;;;;;15.90;56.30;;;;;;5116150;27;19973;-90
2022/05/08 18:45:22;;;;;;;;;;;16.00;56.50;;;;;;5112515;28;19908;-91
2022/05/08 18:47:51;;;;;;;;;;;16.00;56.70;;;;;;5135480;27;19983;-93
2022/05/08 18:50:20;;;;;;;;;;;16.00;56.90;;;;;;5151300;27;19911;-89
2022/05/08 18:52:45;;;;;;;;;;;15.90;56.90;;;;;;5116635;27;19962;-88
2022/05/08 18:55:11;;;;;;;;;;;15.90;57.00;;;;;;5117184;27;19947;-89
2022/05/08 18:57:36;;;;;;;;;;;15.90;57.10;;;;;;5133159;27;20022;-90
2022/05/08 19:00:03;;;;;;;;;;;15.90;57.30;;;;;;5113791;28;19914;-89
2022/05/08 19:02:28;;;;;;;;;;;15.90;57.30;;;;;;5113717;28;19908;-88
2022/05/08 19:04:54;;;;;;;;;;;15.80;57.40;;;;;;5121577;28;19918;-92
2022/05/08 19:07:21;;;;;;;;;;;15.80;57.50;;;;;;5112399;28;19999;-89
2022/05/08 19:09:47;;;;;;;;;;;15.70;57.40;;;;;;5111753;28;19908;-90
2022/05/08 19:12:13;;;;;;;;;;;15.70;57.50;;;;;;5111674;28;19919;-91
2022/05/08 19:14:39;;;;;;;;;;;15.70;57.60;;;;;;5123533;27;19907;-90
2022/05/08 19:17:52;;;;;;;;;;;15.70;57.30;;;;;;5154084;27;19916;-89
2022/05/08 19:20:17;;;;;;;;;;;15.60;57.90;;;;;;5153495;27;19911;-93
2022/05/08 19:22:43;;;;;;;;;;;15.60;57.90;;;;;;5143792;27;20292;-89
2022/05/08 19:25:08;;;;;;;;;;;15.50;58.00;;;;;;5143333;27;19916;-89
2022/05/08 19:27:34;;;;;;;;;;;15.50;57.90;;;;;;5124037;27;19911;-89
2022/05/08 19:29:59;;;;;;;;;;;15.40;58.20;;;;;;5122037;27;19911;-89
2022/05/08 19:38:02;;;;;;;;;;;15.20;58.50;;;;;;5154169;27;19914;-89
2022/05/08 19:40:28;;;;;;;;;;;15.10;58.60;;;;;;5135471;27;19911;-91
2022/05/08 19:42:54;;;;;;;;;;;15.10;58.60;;;;;;5154074;27;19946;-93
2022/05/08 19:45:20;;;;;;;;;;;15.00;58.70;;;;;;5147773;27;19980;-90
2022/05/08 19:47:45;;;;;;;;;;;15.00;58.80;;;;;;5116141;28;19912;-90
2022/05/08 19:50:11;;;;;;;;;;;14.90;58.80;;;;;;5134236;27;20249;-90
2022/05/08 19:52:37;;;;;;;;;;;14.90;58.80;;;;;;5135900;27;19916;-90
2022/05/08 19:55:02;;;;;;;;;;;14.80;58.80;;;;;;5138007;27;19920;-88
2022/05/08 19:57:28;;;;;;;;;;;14.70;58.80;;;;;;5137031;27;19908;-89
2022/05/08 19:59:56;;;;;;;;;;;14.70;59.10;;;;;;5147293;27;19919;-88
2022/05/08 20:02:27;;;;;;;;;;;14.60;59.20;;;;;;5114344;28;19908;-89
2022/05/08 20:04:53;;;;;;;;;;;14.60;59.10;;;;;;5132815;27;19915;-89
2022/05/08 20:07:20;;;;;;;;;;;14.50;59.20;;;;;;5149089;27;20459;-91
2022/05/08 20:09:46;;;;;;;;;;;14.40;59.30;;;;;;5147971;27;20386;-90
2022/05/08 20:12:12;;;;;;;;;;;14.40;59.20;;;;;;5132697;28;19908;-89
2022/05/08 20:14:38;;;;;;;;;;;14.40;59.50;;;;;;5132769;28;20021;-91
2022/05/08 20:17:05;;;;;;;;;;;14.30;59.60;;;;;;5131387;27;19926;-90
2022/05/08 20:19:31;;;;;;;;;;;14.30;59.70;;;;;;5132252;27;19916;-88
2022/05/08 20:22:03;;;;;;;;;;;14.20;59.70;;;;;;5131893;28;19908;-89
2022/05/08 20:24:34;;;;;;;;;;;14.20;59.70;;;;;;5114173;28;19964;-88
2022/05/08 20:27:01;;;;;;;;;;;14.20;59.80;;;;;;5129155;28;19919;-88
2022/05/08 20:29:26;;;;;;;;;;;14.10;59.70;;;;;;5103011;27;19964;-89
2022/05/08 20:31:53;;;;;;;;;;;14.10;59.70;;;;;;5103981;28;19990;-89
2022/05/08 20:34:20;;;;;;;;;;;14.10;59.50;;;;;;5119059;28;20404;-89
2022/05/08 20:36:45;;;;;;;;;;;14.00;59.50;;;;;;5134819;27;19953;-89
2022/05/08 20:39:12;;;;;;;;;;;14.00;59.50;;;;;;5138321;27;19912;-90
2022/05/08 20:41:40;;;;;;;;;;;14.00;59.60;;;;;;5117743;27;19908;-89
2022/05/08 20:44:08;;;;;;;;;;;14.00;59.50;;;;;;5118120;27;20002;-90
2022/05/08 20:46:34;;;;;;;;;;;14.00;59.40;;;;;;5117095;27;19950;-89
2022/05/08 20:48:59;;;;;;;;;;;14.00;59.40;;;;;;5117091;28;19920;-90
2022/05/08 20:51:25;;;;;;;;;;;14.00;59.30;;;;;;5117430;27;19917;-88
2022/05/08 20:53:51;;;;;;;;;;;13.90;59.30;;;;;;5117374;28;19935;-90
2022/05/08 20:56:16;;;;;;;;;;;13.90;59.30;;;;;;5106614;27;19921;-90
2022/05/08 20:58:42;;;;;;;;;;;13.90;59.30;;;;;;5137796;27;20048;-89
2022/05/08 21:01:07;;;;;;;;;;;13.90;59.30;;;;;;5119494;27;19911;-89
2022/05/08 21:03:33;;;;;;;;;;;13.90;59.30;;;;;;5116971;28;19972;-89
2022/05/08 21:08:42;;;;;;;;;;;13.90;59.20;;;;;;5116674;27;20002;-89
2022/05/08 21:11:08;;;;;;;;;;;13.90;59.30;;;;;;5133884;27;20325;-89
2022/05/08 21:13:33;;;;;;;;;;;13.80;59.20;;;;;;5137936;27;19932;-91
2022/05/08 21:15:59;;;;;;;;;;;13.80;59.10;;;;;;5130298;27;19926;-89
2022/05/08 21:18:24;;;;;;;;;;;13.80;59.20;;;;;;5116650;28;19919;-89
2022/05/08 21:20:50;;;;;;;;;;;13.80;59.30;;;;;;5120457;27;20015;-89
2022/05/08 21:23:15;;;;;;;;;;;13.80;59.20;;;;;;5116871;28;19915;-90
2022/05/08 21:25:41;;;;;;;;;;;13.80;59.40;;;;;;5121843;27;20269;-89
2022/05/08 21:28:06;;;;;;;;;;;13.80;59.40;;;;;;5116611;28;19908;-88
2022/05/08 21:30:32;;;;;;;;;;;13.80;59.40;;;;;;5118851;27;20003;-88
2022/05/08 21:32:58;;;;;;;;;;;13.80;59.30;;;;;;5107986;27;20283;-94
2022/05/08 21:35:24;;;;;;;;;;;13.80;59.40;;;;;;5126601;27;19916;-88
